Time;durP1;ratioP1;P1;durP2;ratioP2;P2;SDS_P1;SDS_P2;PMS_P1;PMS_P2;Temp;Humidity;BMP_temperature;BMP_pressure;BME280_temperature;BME280_humidity;BME280_pressure;Samples;Min_cycle;Max_cycle;Signal;HPM_P1;HPM_P2
2021/12/17 00:00:05;;;;;;;5.33;3.70;;;;;;;3.34;95.07;98506.26;1730398;81;20982;-78
2021/12/17 00:05:32;;;;;;;5.10;3.40;;;;;;;3.42;95.29;98497.62;1769604;81;20390;-78
2021/12/17 00:07:51;;;;;;;6.08;3.90;;;;;;;3.47;95.10;98498.95;1768297;81;21013;-77
2021/12/17 00:10:21;;;;;;;6.80;4.15;;;;;;;3.52;95.15;98495.03;1769328;81;21051;-77
2021/12/17 00:12:47;;;;;;;6.67;3.65;;;;;;;3.56;95.39;98492.88;1762462;81;21033;-77
2021/12/17 00:15:18;;;;;;;5.55;3.67;;;;;;;3.62;95.42;98485.50;1769122;81;21503;-77
2021/12/17 00:17:55;;;;;;;7.25;4.12;;;;;;;3.65;95.43;98489.02;1740359;81;21013;-77
2021/12/17 00:20:41;;;;;;;6.80;4.50;;;;;;;3.67;95.37;98487.72;1738257;82;21045;-77
2021/12/17 00:50:16;;;;;;;12.18;8.43;;;;;;;3.55;94.39;98466.23;1738977;82;21057;-77
2021/12/17 00:52:35;;;;;;;11.35;8.23;;;;;;;3.54;94.49;98471.04;1737314;82;21509;-77
2021/12/17 00:55:07;;;;;;;13.62;8.00;;;;;;;3.52;94.74;98472.76;1739272;82;20989;-77
2021/12/17 00:57:40;;;;;;;14.00;9.23;;;;;;;3.51;94.46;98474.52;1766054;81;21387;-77
2021/12/17 01:00:10;;;;;;;15.72;9.20;;;;;;;3.50;94.73;98473.19;1768471;81;21053;-77
2021/12/17 01:02:38;;;;;;;15.72;8.88;;;;;;;3.47;94.80;98467.50;1769661;81;21403;-77
2021/12/17 01:05:16;;;;;;;13.80;9.28;;;;;;;3.46;94.33;98475.34;1769508;80;20965;-77
2021/12/17 01:07:48;;;;;;;15.10;9.63;;;;;;;3.45;95.00;98460.08;1769590;81;21005;-77
2021/12/17 01:10:21;;;;;;;18.65;9.28;;;;;;;3.44;95.01;98466.16;1768279;81;21005;-77
2021/12/17 01:13:07;;;;;;;18.57;10.35;;;;;;;3.43;94.45;98469.23;1763912;81;21049;-77
2021/12/17 01:15:41;;;;;;;17.32;9.78;;;;;;;3.42;94.95;98464.86;1767419;81;21533;-77
2021/12/17 01:18:16;;;;;;;16.90;10.45;;;;;;;3.42;94.31;98465.28;1767623;81;20985;-77
2021/12/17 01:21:20;;;;;;;16.12;10.10;;;;;;;3.42;94.34;98465.28;1768640;80;21018;-77
2021/12/17 01:41:45;;;;;;;17.27;10.65;;;;;;;3.34;95.59;98440.77;1769588;81;21068;-77
2021/12/17 01:43:04;;;;;;;17.07;11.08;;;;;;;3.33;95.35;98443.84;1761362;80;20993;-77
2021/12/17 01:45:36;;;;;;;18.12;11.10;;;;;;;3.33;94.73;98449.50;1769916;80;21001;-77
2021/12/17 01:48:02;;;;;;;15.18;10.32;;;;;;;3.33;94.67;98452.11;1769390;81;21077;-76
2021/12/17 01:56:37;;;;;;;19.23;11.25;;;;;;;3.33;94.51;98454.31;1739562;82;20981;-77
2021/12/17 02:01:35;;;;;;;17.70;10.55;;;;;;;3.33;94.39;98454.31;1769966;80;21419;-77
2021/12/17 02:04:04;;;;;;;17.50;11.08;;;;;;;3.33;94.51;98461.28;1769773;81;21443;-77
2021/12/17 02:06:35;;;;;;;18.42;11.30;;;;;;;3.32;94.54;98464.33;1746271;81;21439;-77
2021/12/17 02:09:01;;;;;;;19.37;11.90;;;;;;;3.34;94.27;98468.27;1739333;82;21013;-77
2021/12/17 02:22:35;;;;;;;16.55;10.45;;;;;;;3.52;94.41;98453.98;1750490;81;20954;-77
2021/12/17 02:30:17;;;;;;;15.35;9.80;;;;;;;3.62;94.55;98450.12;1768787;81;21395;-76
2021/12/17 02:32:32;;;;;;;16.12;10.03;;;;;;;3.67;94.56;98462.81;1766608;81;20993;-77
2021/12/17 02:35:19;;;;;;;17.82;11.10;;;;;;;3.69;94.60;98458.45;1769591;81;21033;-77
2021/12/17 02:37:32;;;;;;;17.92;10.03;;;;;;;3.74;94.43;98453.24;1741481;81;20997;-77
2021/12/17 02:45:34;;;;;;;15.83;10.30;;;;;;;3.78;94.42;98444.08;1739446;82;20981;-77
2021/12/17 02:48:14;;;;;;;15.75;10.30;;;;;;;3.77;94.24;98444.95;1739629;82;21001;-77
2021/12/17 02:50:48;;;;;;;17.37;10.43;;;;;;;3.74;94.22;98446.23;1754005;81;21000;-77
2021/12/17 02:53:19;;;;;;;20.20;11.08;;;;;;;3.74;94.07;98439.69;1769970;81;20997;-77
2021/12/17 02:55:53;;;;;;;19.52;11.73;;;;;;;3.65;92.79;98439.21;1769784;81;21403;-76
2021/12/17 02:58:24;;;;;;;20.20;11.28;;;;;;;3.64;93.40;98427.40;1769837;81;21053;-76
2021/12/17 03:00:51;;;;;;;18.10;10.20;;;;;;;3.61;93.51;98424.33;1769909;81;21016;-76
2021/12/17 03:03:21;;;;;;;20.57;12.10;;;;;;;3.60;92.89;98422.58;1769678;81;20990;-76
2021/12/17 03:05:50;;;;;;;18.80;11.93;;;;;;;3.60;93.02;98412.52;1743816;81;20993;-76
2021/12/17 03:08:17;;;;;;;20.27;12.33;;;;;;;3.58;92.89;98411.23;1739429;82;21025;-76
2021/12/17 03:10:47;;;;;;;22.22;12.20;;;;;;;3.55;92.75;98417.33;1739356;82;21010;-76
2021/12/17 03:13:17;;;;;;;17.17;10.90;;;;;;;3.53;92.25;98412.50;1773348;80;20950;-76
2021/12/17 03:15:51;;;;;;;24.20;13.15;;;;;;;3.49;90.92;98411.17;1718237;83;21051;-76
2021/12/17 03:23:45;;;;;;;24.05;14.23;;;;;;;3.41;91.84;98386.23;1730982;83;21003;-76
2021/12/17 03:26:21;;;;;;;22.20;12.75;;;;;;;3.39;91.87;98398.02;1730870;83;20999;-76
2021/12/17 03:28:52;;;;;;;22.25;13.75;;;;;;;3.36;91.83;98401.06;1723702;82;20995;-76
2021/12/17 03:31:21;;;;;;;25.70;14.98;;;;;;;3.34;91.79;98397.53;1703041;82;22133;-76
2021/12/17 03:33:51;;;;;;;23.05;13.55;;;;;;;3.32;91.85;98400.59;1683606;84;21006;-76
2021/12/17 03:36:20;;;;;;;25.27;14.43;;;;;;;3.28;90.41;98404.94;1702061;83;20965;-76
2021/12/17 03:38:49;;;;;;;26.73;14.47;;;;;;;3.26;91.58;98402.31;1701727;84;21017;-76
2021/12/17 03:41:22;;;;;;;25.75;13.78;;;;;;;3.23;91.80;98390.48;1701873;84;20982;-76
2021/12/17 03:43:52;;;;;;;27.50;15.08;;;;;;;3.21;91.51;98388.73;1700086;84;21116;-76
2021/12/17 03:46:21;;;;;;;25.68;15.10;;;;;;;3.21;91.53;98397.89;1681844;84;20990;-76
2021/12/17 03:48:48;;;;;;;24.67;14.03;;;;;;;3.19;91.48;98395.72;1725231;83;20939;-76
2021/12/17 03:51:17;;;;;;;27.10;14.63;;;;;;;3.15;91.55;98390.86;1767344;80;21052;-76
2021/12/17 03:53:50;;;;;;;46.63;23.62;;;;;;;3.14;91.43;98396.55;1752946;80;21045;-77
2021/12/17 03:56:17;;;;;;;31.15;17.80;;;;;;;3.12;91.25;98390.41;1739482;82;21030;-77
2021/12/17 03:58:45;;;;;;;25.35;13.88;;;;;;;3.09;91.44;98393.45;1704315;84;21021;-77
2021/12/17 04:01:12;;;;;;;24.30;13.95;;;;;;;3.06;90.44;98394.75;1688538;83;21017;-77
2021/12/17 04:03:38;;;;;;;26.35;15.63;;;;;;;3.03;89.94;98392.96;1702096;84;20990;-77
2021/12/17 04:06:07;;;;;;;26.55;15.32;;;;;;;3.03;90.34;98390.34;1701152;84;21447;-77
2021/12/17 04:08:35;;;;;;;24.92;14.03;;;;;;;3.02;90.57;98383.36;1699390;84;21045;-77
2021/12/17 04:11:19;;;;;;;28.70;15.28;;;;;;;3.01;90.39;98391.66;1694841;84;21009;-77
2021/12/17 04:13:56;;;;;;;29.72;15.90;;;;;;;3.01;90.33;98392.09;1733812;82;21452;-76
2021/12/17 04:16:28;;;;;;;28.05;16.12;;;;;;;2.97;89.89;98395.13;1751285;81;21025;-77
2021/12/17 04:18:54;;;;;;;25.60;14.83;;;;;;;2.96;90.36;98393.80;1737409;81;21029;-77
2021/12/17 04:21:22;;;;;;;27.40;15.13;;;;;;;2.91;90.34;98395.09;1737691;82;20961;-77
2021/12/17 04:23:52;;;;;;;26.95;14.98;;;;;;;2.88;90.43;98394.63;1718007;82;21057;-77
2021/12/17 04:26:22;;;;;;;28.77;16.02;;;;;;;2.88;90.46;98395.94;1716897;84;20965;-76
2021/12/17 04:28:53;;;;;;;31.25;15.70;;;;;;;2.93;90.54;98401.20;1716892;83;21063;-77
2021/12/17 04:31:28;;;;;;;28.42;15.32;;;;;;;2.94;90.57;98387.23;1717583;82;21406;-77
2021/12/17 04:33:54;;;;;;;;;;;;;;;2.96;90.73;98379.39;1719468;83;21343;-77
2021/12/17 04:36:28;;;;;;;26.75;14.87;;;;;;;2.98;90.82;98377.23;1717185;83;20375;-77
2021/12/17 04:38:52;;;;;;;26.90;14.68;;;;;;;3.01;90.45;98381.61;1716817;82;21032;-77
2021/12/17 04:44:07;;;;;;;28.42;14.70;;;;;;;3.06;90.88;98375.12;1723166;82;21004;-77
2021/12/17 04:46:36;;;;;;;26.30;14.95;;;;;;;3.08;91.11;98372.95;1745705;82;20997;-77
2021/12/17 04:59:47;;;;;;;28.92;14.68;;;;;;;3.14;90.03;98356.38;1717036;83;21033;-77
2021/12/17 05:02:16;;;;;;;25.08;15.28;;;;;;;3.08;89.35;98365.09;1737350;82;21000;-77
2021/12/17 05:04:45;;;;;;;30.25;15.30;;;;;;;3.08;89.96;98374.26;1745439;82;21462;-77
2021/12/17 05:07:13;;;;;;;25.12;14.13;;;;;;;3.06;89.70;98379.90;1746508;82;21021;-77
2021/12/17 05:09:51;;;;;;;25.68;14.50;;;;;;;3.03;87.35;98375.52;1746335;82;21049;-77
2021/12/17 05:20:40;;;;;;;29.05;15.95;;;;;;;2.91;87.57;98380.69;1735365;83;20986;-76
2021/12/17 05:22:58;;;;;;;33.85;20.35;;;;;;;2.86;87.68;98378.02;1733660;82;22129;-77
2021/12/17 05:25:29;;;;;;;26.55;15.72;;;;;;;2.81;87.69;98381.03;1736706;82;21010;-76
2021/12/17 05:28:00;;;;;;;32.20;15.93;;;;;;;2.80;87.91;98375.78;1736928;82;21060;-77
2021/12/17 05:30:25;;;;;;;24.92;14.13;;;;;;;2.76;88.13;98377.50;1755970;81;20974;-77
2021/12/17 05:32:52;;;;;;;25.88;14.00;;;;;;;2.72;87.56;98377.91;1767419;81;20990;-77
2021/12/17 05:35:19;;;;;;;26.07;14.80;;;;;;;2.69;86.75;98380.49;1767337;81;21053;-77
2021/12/17 05:37:47;;;;;;;25.75;14.53;;;;;;;2.68;87.18;98387.91;1766819;81;20981;-77
2021/12/17 05:40:14;;;;;;;25.10;13.48;;;;;;;2.64;85.90;98379.58;1736890;83;21077;-77
2021/12/17 05:42:42;;;;;;;26.48;14.63;;;;;;;2.61;84.87;98384.36;1736867;83;20985;-76
2021/12/17 05:45:34;;;;;;;26.48;14.47;;;;;;;2.62;85.97;98386.55;1734355;81;21022;-77
2021/12/17 05:47:39;;;;;;;26.85;14.15;;;;;;;2.58;86.08;98385.63;1726384;81;20987;-77
2021/12/17 05:50:08;;;;;;;28.10;15.48;;;;;;;2.58;86.57;98384.32;1736497;83;21065;-77
2021/12/17 05:52:34;;;;;;;28.52;14.38;;;;;;;2.58;86.68;98388.24;1713000;83;21368;-77
2021/12/17 05:55:02;;;;;;;28.45;15.28;;;;;;;2.56;86.64;98372.98;1701466;84;21452;-77
2021/12/17 05:57:28;;;;;;;26.27;14.58;;;;;;;2.56;86.58;98376.02;1718184;83;20968;-77
2021/12/17 05:59:55;;;;;;;30.30;16.10;;;;;;;2.53;86.36;98369.47;1683970;84;21071;-77
2021/12/17 06:02:21;;;;;;;26.85;15.35;;;;;;;2.52;86.64;98374.26;1736213;83;21523;-77
2021/12/17 06:04:49;;;;;;;29.23;16.27;;;;;;;2.52;86.70;98376.87;1736681;81;21293;-77
2021/12/17 06:07:28;;;;;;;29.82;15.78;;;;;;;2.51;86.61;98374.67;1736642;83;21582;-77
2021/12/17 06:10:03;;;;;;;29.65;15.55;;;;;;;2.49;86.69;98375.97;1733280;83;21522;-77
2021/12/17 06:12:29;;;;;;;;;;;;;;;2.48;86.97;98376.83;1739442;81;21127;-77
2021/12/17 06:14:57;;;;;;;26.45;14.65;;;;;;;2.49;86.83;98369.87;1736186;82;20152;-77
2021/12/17 06:17:24;;;;;;;27.50;14.40;;;;;;;2.46;86.85;98377.23;1752683;80;21446;-78
2021/12/17 06:19:50;;;;;;;25.52;14.50;;;;;;;2.44;86.44;98369.81;1716717;82;21068;-77
2021/12/17 06:22:18;;;;;;;26.07;15.10;;;;;;;2.45;86.76;98365.02;1756935;81;20994;-77
2021/12/17 06:24:46;;;;;;;29.00;15.08;;;;;;;2.42;86.58;98359.78;1769728;81;21025;-77
2021/12/17 06:27:16;;;;;;;29.12;15.80;;;;;;;2.42;86.77;98351.05;1754155;81;21013;-78
2021/12/17 06:29:44;;;;;;;29.02;14.60;;;;;;;2.43;86.97;98346.25;1739304;82;21025;-77
2021/12/17 06:32:13;;;;;;;32.63;15.98;;;;;;;2.42;86.93;98345.81;1761493;81;20963;-76
2021/12/17 06:34:40;;;;;;;28.60;15.35;;;;;;;2.40;87.09;98358.88;1769749;81;21001;-77
2021/12/17 06:37:07;;;;;;;27.40;15.10;;;;;;;2.41;86.90;98366.30;1748279;81;21049;-76
2021/12/17 06:39:35;;;;;;;30.60;16.02;;;;;;;2.37;86.84;98363.64;1749948;81;21470;-77
2021/12/17 06:42:04;;;;;;;28.60;15.00;;;;;;;2.40;87.00;98363.25;1773444;80;21418;-77
2021/12/17 06:44:32;;;;;;;28.52;15.00;;;;;;;2.42;86.77;98357.58;1769682;81;21040;-77
2021/12/17 06:49:43;;;;;;;27.20;14.73;;;;;;;2.44;86.76;98365.00;1769710;81;21030;-76
2021/12/17 07:00:47;;;;;;;26.50;14.63;;;;;;;2.48;85.62;98358.52;1729362;81;21075;-77
2021/12/17 07:22:21;;;;;;;27.93;14.98;;;;;;;2.73;84.95;98351.29;1692863;83;21038;-76
2021/12/17 07:33:21;;;;;;;28.23;14.85;;;;;;;2.88;83.30;98364.94;1726689;82;20981;-78
2021/12/17 07:35:54;;;;;;;30.70;14.93;;;;;;;2.88;83.05;98373.69;1754954;79;20954;-79
2021/12/17 07:41:04;;;;;;;29.75;14.60;;;;;;;2.88;83.47;98360.59;1761356;81;20997;-82
2021/12/17 07:43:51;;;;;;;26.15;13.10;;;;;;;2.87;83.98;98359.27;1694774;84;20986;-78
2021/12/17 07:46:12;;;;;;;30.10;15.32;;;;;;;2.81;81.42;98360.51;1690960;84;21093;-78
2021/12/17 07:48:40;;;;;;;26.57;13.53;;;;;;;2.79;82.24;98357.91;1772950;80;21021;-81
2021/12/17 07:51:12;;;;;;;26.40;14.40;;;;;;;2.75;82.21;98354.36;1770721;80;21175;-81
2021/12/17 07:53:44;;;;;;;26.23;14.18;;;;;;;2.74;82.85;98356.99;1774556;80;21008;-81
2021/12/17 07:56:20;;;;;;;28.92;14.70;;;;;;;2.74;82.88;98358.30;1773418;80;21055;-80
2021/12/17 07:58:50;;;;;;;29.95;15.03;;;;;;;2.72;82.96;98360.91;1749814;81;21418;-80
2021/12/17 08:01:17;;;;;;;26.50;15.18;;;;;;;2.73;83.16;98373.12;1749665;82;21044;-80
2021/12/17 08:03:46;;;;;;;26.60;13.65;;;;;;;2.73;82.39;98369.19;1778148;79;21461;-80
2021/12/17 08:06:29;;;;;;;28.67;14.63;;;;;;;2.73;82.07;98364.38;1785076;79;20965;-79
2021/12/17 08:09:05;;;;;;;31.23;14.35;;;;;;;2.74;82.64;98365.70;1757935;80;20989;-80
2021/12/17 08:11:38;;;;;;;27.58;14.15;;;;;;;2.75;83.00;98363.98;1768676;79;20965;-80
2021/12/17 08:14:08;;;;;;;25.17;13.93;;;;;;;2.77;83.22;98367.47;1775593;80;21065;-79
2021/12/17 08:16:42;;;;;;;30.10;14.70;;;;;;;2.79;83.12;98363.14;1747936;79;21402;-80
2021/12/17 08:24:47;;;;;;;28.98;14.40;;;;;;;2.85;82.70;98353.13;1798737;80;21421;-82
2021/12/17 08:27:23;;;;;;;;;;;;;;;2.87;82.45;98346.17;1799841;80;20978;-81
2021/12/17 08:29:53;;;;;;;25.82;13.55;;;;;;;2.89;82.83;98347.94;1796678;79;20095;-81
2021/12/17 08:32:13;;;;;;;26.07;13.75;;;;;;;2.91;82.64;98341.41;1797462;80;21412;-81
2021/12/17 08:34:44;;;;;;;25.55;13.13;;;;;;;2.90;81.70;98323.92;1797445;79;21018;-81
2021/12/17 08:37:10;;;;;;;24.35;13.35;;;;;;;2.91;81.49;98323.09;1737252;81;20989;-81
2021/12/17 08:39:42;;;;;;;26.57;13.58;;;;;;;2.94;81.45;98320.92;1736950;82;21060;-81
2021/12/17 08:42:11;;;;;;;22.67;13.30;;;;;;;2.96;81.07;98326.61;1737489;80;21446;-81
2021/12/17 08:44:39;;;;;;;26.35;13.22;;;;;;;2.95;80.39;98323.52;1777409;80;20952;-81
2021/12/17 08:47:23;;;;;;;26.33;12.68;;;;;;;2.95;80.95;98318.73;1753175;81;21473;-80
2021/12/17 08:49:54;;;;;;;21.82;11.95;;;;;;;2.96;80.49;98313.52;1736949;82;21509;-80
2021/12/17 08:52:22;;;;;;;22.85;12.98;;;;;;;2.95;80.33;98302.58;1737039;81;20961;-80
2021/12/17 08:54:49;;;;;;;45.17;21.48;;;;;;;3.01;80.52;98308.30;1767543;80;21010;-80
2021/12/17 08:57:15;;;;;;;28.47;15.10;;;;;;;3.01;80.00;98300.02;1766661;81;21462;-80
2021/12/17 08:59:42;;;;;;;22.82;12.70;;;;;;;3.06;80.67;98303.95;1767147;81;21446;-81
2021/12/17 09:02:11;;;;;;;24.37;13.13;;;;;;;3.13;80.75;98303.14;1767370;81;21448;-79
2021/12/17 09:04:40;;;;;;;22.22;11.93;;;;;;;3.18;80.73;98307.08;1767182;81;21076;-79
2021/12/17 09:07:07;;;;;;;24.90;13.43;;;;;;;3.20;79.64;98304.02;1767508;80;21411;-79
2021/12/17 09:09:34;;;;;;;25.27;13.48;;;;;;;3.24;80.79;98295.77;1765476;80;21009;-79
2021/12/17 09:12:04;;;;;;;25.10;12.53;;;;;;;3.32;80.88;98293.18;1748809;81;21360;-79
2021/12/17 09:14:35;;;;;;;21.42;12.13;;;;;;;3.34;80.20;98291.43;1762510;81;21025;-80
2021/12/17 09:17:03;;;;;;;24.65;12.70;;;;;;;3.37;80.53;98298.86;1775816;79;21037;-79
2021/12/17 09:19:32;;;;;;;25.75;12.73;;;;;;;3.42;80.48;98298.90;1806946;79;21017;-80
2021/12/17 09:22:01;;;;;;;21.57;11.95;;;;;;;3.45;80.68;98297.61;1777125;79;21380;-78
2021/12/17 09:24:44;;;;;;;22.73;12.10;;;;;;;3.52;80.48;98292.82;1776838;79;21100;-78
2021/12/17 09:27:11;;;;;;;18.62;11.20;;;;;;;3.57;80.13;98298.06;1782241;79;20989;-78
2021/12/17 09:29:39;;;;;;;18.77;10.98;;;;;;;3.60;79.78;98288.02;1803172;79;21025;-79
2021/12/17 09:32:06;;;;;;;20.23;11.00;;;;;;;3.58;79.57;98284.11;1772941;79;20961;-79
2021/12/17 09:34:32;;;;;;;21.65;11.15;;;;;;;3.60;79.26;98277.54;1748247;81;21001;-79
2021/12/17 09:36:59;;;;;;;16.70;10.23;;;;;;;3.59;78.08;98278.00;1744876;82;20993;-79
2021/12/17 09:39:25;;;;;;;18.67;10.60;;;;;;;3.63;79.25;98276.25;1744641;82;21052;-80
2021/12/17 09:41:53;;;;;;;17.98;10.35;;;;;;;3.63;78.60;98271.90;1745906;81;21005;-79
2021/12/17 09:44:20;;;;;;;19.77;9.68;;;;;;;3.66;78.81;98265.78;1775337;81;21036;-78
2021/12/17 09:46:48;;;;;;;16.37;9.70;;;;;;;3.66;79.34;98269.27;1774989;80;21036;-79
2021/12/17 09:49:19;;;;;;;17.35;9.28;;;;;;;3.62;78.63;98275.81;1756091;81;21060;-79
2021/12/17 09:51:47;;;;;;;21.02;10.85;;;;;;;3.57;78.63;98267.92;1744729;82;21005;-79
2021/12/17 09:54:14;;;;;;;19.40;10.43;;;;;;;3.54;78.60;98262.23;1744723;82;21060;-79
2021/12/17 09:56:40;;;;;;;14.20;8.65;;;;;;;3.54;79.18;98257.45;1744751;82;21076;-79
2021/12/17 09:59:07;;;;;;;21.27;8.93;;;;;;;3.52;79.09;98260.06;1745275;81;21013;-79
2021/12/17 10:01:42;;;;;;;19.10;9.85;;;;;;;3.51;78.69;98255.70;1745561;81;21041;-79
2021/12/17 10:04:22;;;;;;;18.07;9.95;;;;;;;3.54;78.98;98254.38;1772925;81;21000;-79
2021/12/17 10:06:50;;;;;;;14.83;8.80;;;;;;;3.58;79.16;98242.18;1775395;81;21066;-79
2021/12/17 10:09:17;;;;;;;13.83;7.97;;;;;;;3.65;79.39;98245.70;1775559;80;21013;-79
2021/12/17 10:12:05;;;;;;;16.95;8.73;;;;;;;3.73;78.66;98234.77;1756107;80;20993;-79
2021/12/17 10:14:32;;;;;;;15.25;7.90;;;;;;;3.82;78.84;98247.05;1743946;82;21021;-78
2021/12/17 10:17:13;;;;;;;14.03;8.25;;;;;;;3.85;78.27;98239.62;1742428;82;21023;-79
2021/12/17 10:19:53;;;;;;;13.83;8.43;;;;;;;3.87;76.87;98241.37;1695708;83;20975;-79
2021/12/17 10:22:21;;;;;;;15.63;8.83;;;;;;;3.92;76.90;98250.11;1690612;84;21030;-78
2021/12/17 10:25:08;;;;;;;24.85;14.03;;;;;;;3.99;77.13;98233.95;1687316;84;21006;-79
2021/12/17 10:27:42;;;;;;;26.12;14.58;;;;;;;4.03;76.22;98230.89;1685303;85;21556;-78
2021/12/17 10:30:16;;;;;;;16.07;9.35;;;;;;;4.06;76.77;98224.31;1729652;83;21415;-78
2021/12/17 10:32:47;;;;;;;15.83;9.15;;;;;;;4.08;75.42;98230.45;1729200;83;21049;-79
2021/12/17 10:35:17;;;;;;;15.20;7.78;;;;;;;4.10;76.22;98228.69;1729645;82;20982;-78
2021/12/17 10:37:57;;;;;;;14.63;8.33;;;;;;;4.12;75.21;98232.63;1747170;81;21013;-78
2021/12/17 10:40:33;;;;;;;13.40;7.58;;;;;;;4.19;75.13;98231.78;1759744;81;21460;-78
2021/12/17 10:43:11;;;;;;;12.23;6.87;;;;;;;4.30;74.88;98227.81;1759439;81;22157;-78
2021/12/17 10:45:43;;;;;;;12.70;7.00;;;;;;;4.47;76.15;98230.00;1759363;80;21030;-79
2021/12/17 10:51:13;;;;;;;11.65;7.08;;;;;;;5.67;71.43;98215.55;1732662;81;21016;-79
2021/12/17 10:53:37;;;;;;;13.25;6.75;;;;;;;5.63;73.21;98223.91;1759471;81;21019;-79
2021/12/17 10:56:04;;;;;;;10.82;6.67;;;;;;;5.81;72.62;98222.02;1755038;81;21372;-79
2021/12/17 10:58:31;;;;;;;14.10;8.25;;;;;;;6.90;69.71;98212.34;1729814;83;21068;-79
2021/12/17 11:01:05;;;;;;;14.25;6.72;;;;;;;7.25;62.38;98216.31;1736243;81;20986;-79
2021/12/17 11:03:41;;;;;;;10.50;6.55;;;;;;;7.30;67.80;98209.22;1738737;81;20965;-79
2021/12/17 11:06:08;;;;;;;13.62;7.35;;;;;;;6.98;67.55;98213.98;1729570;83;21002;-79
2021/12/17 11:08:37;;;;;;;11.63;6.58;;;;;;;6.66;64.56;98203.38;1729701;83;21010;-79
2021/12/17 11:11:12;;;;;;;13.40;6.72;;;;;;;6.77;66.89;98220.36;1729815;82;21440;-79
2021/12/17 11:13:57;;;;;;;10.18;5.97;;;;;;;7.17;65.06;98207.19;1732849;81;20986;-79
2021/12/17 11:16:26;;;;;;;9.80;5.83;;;;;;;6.90;64.08;98198.73;1759670;81;21151;-78
2021/12/17 11:18:55;;;;;;;11.68;6.10;;;;;;;6.40;65.05;98199.22;1759739;81;21021;-78
2021/12/17 11:21:23;;;;;;;12.58;6.40;;;;;;;6.26;64.95;98190.58;1759648;81;21018;-79
2021/12/17 11:23:50;;;;;;;11.97;6.10;;;;;;;6.16;63.73;98208.22;1756744;81;20991;-78
2021/12/17 11:26:17;;;;;;;10.23;5.80;;;;;;;5.97;65.45;98212.27;1759844;81;21463;-78
2021/12/17 11:28:46;;;;;;;11.10;6.15;;;;;;;5.70;65.19;98198.88;1759595;81;21003;-78
2021/12/17 11:31:12;;;;;;;11.05;6.45;;;;;;;5.98;67.27;98209.21;1759673;81;21005;-78
2021/12/17 11:33:40;;;;;;;12.47;5.78;;;;;;;7.29;65.89;98193.41;1759747;81;20998;-78
2021/12/17 11:36:06;;;;;;;10.15;5.90;;;;;;;8.14;60.71;98185.56;1721838;83;21017;-78
2021/12/17 11:39:00;;;;;;;9.45;6.17;;;;;;;8.48;62.08;98193.81;1729599;82;21455;-78
2021/12/17 11:41:52;;;;;;;9.75;5.45;;;;;;;8.94;59.58;98190.79;1729564;83;21025;-79
2021/12/17 11:44:21;;;;;;;9.68;5.40;;;;;;;9.61;57.45;98183.66;1729810;82;21030;-79
2021/12/17 11:47:07;;;;;;;8.50;5.30;;;;;;;10.31;56.54;98179.80;1730008;82;21399;-78
2021/12/17 11:49:49;;;;;;;10.13;6.50;;;;;;;10.96;55.32;98180.73;1740484;81;21005;-79
2021/12/17 11:52:37;;;;;;;9.58;6.03;;;;;;;11.48;53.21;98175.28;1759308;81;21029;-79
2021/12/17 11:55:25;;;;;;;9.33;5.25;;;;;;;11.23;49.28;98165.41;1726139;81;21442;-78
2021/12/17 11:58:02;;;;;;;8.43;5.83;;;;;;;11.59;51.35;98176.29;1729799;81;21431;-78
2021/12/17 12:00:49;;;;;;;9.70;5.37;;;;;;;11.49;50.40;98182.32;1759705;81;21018;-79
2021/12/17 12:03:22;;;;;;;10.15;5.03;;;;;;;11.42;50.72;98188.27;1759816;81;21017;-78
2021/12/17 12:05:56;;;;;;;7.92;5.30;;;;;;;12.27;49.92;98185.23;1759870;81;20982;-79
2021/12/17 12:08:47;;;;;;;;;;;;;;;12.61;49.03;98183.20;1762383;81;21475;-79
2021/12/17 12:11:22;;;;;;;10.70;6.17;;;;;;;12.32;49.70;98187.27;1748638;81;20360;-78
2021/12/17 12:13:52;;;;;;;12.83;5.67;;;;;;;11.76;49.42;98190.37;1729899;82;21450;-78
2021/12/17 12:16:26;;;;;;;7.87;5.10;;;;;;;10.56;50.65;98189.31;1729584;83;21383;-78
2021/12/17 12:19:07;;;;;;;11.22;5.28;;;;;;;9.74;53.00;98191.30;1729753;82;21081;-77
2021/12/17 12:21:38;;;;;;;10.75;5.58;;;;;;;9.04;52.71;98191.02;1729651;82;21451;-78
2021/12/17 12:24:16;;;;;;;8.45;5.00;;;;;;;8.08;54.87;98185.67;1729669;82;21404;-78
2021/12/17 12:26:51;;;;;;;8.98;5.35;;;;;;;7.44;56.36;98193.23;1753098;81;20943;-78
2021/12/17 12:29:22;;;;;;;8.83;5.28;;;;;;;7.29;57.74;98191.66;1759739;81;21439;-78
2021/12/17 12:32:13;;;;;;;7.70;4.80;;;;;;;7.14;58.80;98182.17;1758988;80;21432;-78
2021/12/17 12:34:42;;;;;;;8.28;5.00;;;;;;;6.94;59.37;98187.23;1756958;81;21423;-78
2021/12/17 12:37:25;;;;;;;9.28;4.85;;;;;;;6.52;58.95;98195.59;1759551;81;21018;-79
2021/12/17 12:39:58;;;;;;;8.65;4.85;;;;;;;6.30;59.60;98191.86;1757535;81;21025;-78
2021/12/17 12:42:38;;;;;;;10.82;5.45;;;;;;;5.99;61.07;98207.00;1759768;81;22168;-78
2021/12/17 12:45:10;;;;;;;10.18;5.08;;;;;;;5.81;61.65;98199.66;1759592;81;21006;-78
2021/12/17 12:47:45;;;;;;;12.05;7.50;;;;;;;5.66;62.33;98200.20;1759730;81;21026;-79
2021/12/17 12:50:20;;;;;;;9.45;5.15;;;;;;;5.55;62.69;98196.77;1759400;80;20999;-79
2021/12/17 12:53:00;;;;;;;8.60;4.87;;;;;;;5.33;62.95;98204.79;1759667;81;21037;-78
2021/12/17 12:55:43;;;;;;;10.45;5.45;;;;;;;5.28;63.68;98206.11;1738160;81;21012;-78
2021/12/17 12:58:28;;;;;;;8.20;4.87;;;;;;;5.23;63.75;98196.52;1729729;83;21056;-78
2021/12/17 13:00:59;;;;;;;8.65;5.25;;;;;;;5.08;64.21;98186.94;1729837;83;21009;-78
2021/12/17 13:03:30;;;;;;;8.18;4.42;;;;;;;4.96;64.70;98195.31;1685288;84;21070;-78
2021/12/17 13:05:59;;;;;;;8.63;4.67;;;;;;;4.77;64.84;98198.42;1685157;85;21146;-79
2021/12/17 13:08:30;;;;;;;9.88;5.55;;;;;;;4.72;65.11;98195.82;1692524;84;21492;-78
2021/12/17 13:11:00;;;;;;;11.73;5.17;;;;;;;4.68;66.37;98207.63;1713721;83;21007;-79
2021/12/17 13:13:36;;;;;;;11.18;4.92;;;;;;;4.60;65.71;98208.97;1713492;83;20999;-79
2021/12/17 13:16:13;;;;;;;9.13;5.03;;;;;;;4.46;66.31;98204.64;1713374;83;21027;-79
2021/12/17 13:24:12;;;;;;;7.33;4.60;;;;;;;4.12;67.03;98209.02;1737350;81;21061;-79
2021/12/17 13:26:42;;;;;;;9.48;4.67;;;;;;;4.03;67.14;98213.84;1729416;82;21314;-79
2021/12/17 13:29:18;;;;;;;9.83;5.00;;;;;;;3.93;68.64;98218.19;1729545;83;21423;-80
2021/12/17 13:31:57;;;;;;;9.38;4.87;;;;;;;3.87;68.03;98215.57;1729669;82;21372;-79
2021/12/17 13:34:53;;;;;;;10.70;5.78;;;;;;;3.79;68.86;98211.17;1729623;83;20998;-79
2021/12/17 13:37:27;;;;;;;11.93;5.20;;;;;;;3.69;69.37;98210.73;1739924;81;22183;-79
2021/12/17 13:40:02;;;;;;;11.70;4.92;;;;;;;3.66;69.66;98214.22;1759862;81;21452;-79
2021/12/17 13:42:36;;;;;;;8.85;5.12;;;;;;;3.60;69.81;98229.94;1759751;81;20999;-79
2021/12/17 13:45:13;;;;;;;9.28;4.62;;;;;;;3.54;70.49;98228.17;1683789;84;21499;-79
2021/12/17 13:47:47;;;;;;;10.65;4.85;;;;;;;3.54;70.58;98232.56;1759819;81;21010;-79
2021/12/17 13:50:30;;;;;;;10.05;4.60;;;;;;;3.52;70.35;98226.42;1759936;81;21002;-79
2021/12/17 13:53:08;;;;;;;10.65;5.35;;;;;;;3.50;70.54;98235.61;1731486;81;20993;-79
2021/12/17 13:55:50;;;;;;;9.58;5.00;;;;;;;3.50;70.50;98230.80;1725485;83;21456;-79
2021/12/17 13:58:21;;;;;;;13.72;5.47;;;;;;;3.49;70.73;98228.59;1730018;82;21042;-79
2021/12/17 14:00:55;;;;;;;8.98;4.72;;;;;;;3.46;70.79;98227.72;1729500;83;21010;-79
2021/12/17 14:03:33;;;;;;;8.63;4.90;;;;;;;3.43;71.48;98228.59;1729896;82;21399;-80
2021/12/17 14:06:08;;;;;;;9.18;4.60;;;;;;;3.42;71.27;98231.66;1737287;81;21391;-79
2021/12/17 14:08:25;;;;;;;8.95;4.70;;;;;;;3.39;71.76;98226.41;1758102;81;21002;-80
2021/12/17 14:10:56;;;;;;;9.45;4.55;;;;;;;3.36;71.66;98228.14;1759921;81;21021;-80
2021/12/17 14:13:27;;;;;;;10.75;4.58;;;;;;;3.36;71.67;98230.77;1759961;81;21003;-79
2021/12/17 14:15:57;;;;;;;12.53;4.70;;;;;;;3.34;72.15;98226.82;1729863;83;20998;-81
2021/12/17 14:18:27;;;;;;;7.87;4.30;;;;;;;3.33;72.33;98232.05;1743824;81;20956;-80
2021/12/17 14:20:58;;;;;;;10.75;4.35;;;;;;;3.32;72.64;98232.47;1754941;81;21025;-80
2021/12/17 14:23:28;;;;;;;9.93;4.65;;;;;;;3.30;72.42;98231.19;1754615;82;21012;-78
2021/12/17 14:25:59;;;;;;;8.53;4.25;;;;;;;3.29;72.30;98237.27;1755169;82;21008;-78
2021/12/17 14:28:36;;;;;;;10.25;4.33;;;;;;;3.28;72.56;98231.59;1755072;82;21433;-78
2021/12/17 14:31:16;;;;;;;12.33;4.47;;;;;;;3.26;72.71;98237.28;1749522;82;20942;-79